sensor_id;sensor_type;location;lat;lon;timestamp;pressure;altitude;pressure_sealevel;temperature
11792;BMP180;5953;52.372;9.918;2024-03-02T00:01:44;99638.00;;;15.10
11792;BMP180;5953;52.372;9.918;2024-03-02T00:04:12;99641.00;;;15.10
11792;BMP180;5953;52.372;9.918;2024-03-02T00:06:40;99643.00;;;15.20
11792;BMP180;5953;52.372;9.918;2024-03-02T00:09:10;99646.00;;;15.20
11792;BMP180;5953;52.372;9.918;2024-03-02T00:11:39;99641.00;;;15.30
11792;BMP180;5953;52.372;9.918;2024-03-02T00:14:07;99641.00;;;15.30
11792;BMP180;5953;52.372;9.918;2024-03-02T00:16:35;99649.00;;;15.30
11792;BMP180;5953;52.372;9.918;2024-03-02T00:19:05;99646.00;;;15.30
11792;BMP180;5953;52.372;9.918;2024-03-02T00:21:33;99646.00;;;15.20
11792;BMP180;5953;52.372;9.918;2024-03-02T00:24:07;99645.00;;;15.20
11792;BMP180;5953;52.372;9.918;2024-03-02T00:26:45;99641.00;;;15.30
11792;BMP180;5953;52.372;9.918;2024-03-02T00:29:15;99627.00;;;15.20
11792;BMP180;5953;52.372;9.918;2024-03-02T00:31:45;99639.00;;;15.40
11792;BMP180;5953;52.372;9.918;2024-03-02T00:34:15;99637.00;;;15.40
11792;BMP180;5953;52.372;9.918;2024-03-02T00:36:43;99641.00;;;15.30
11792;BMP180;5953;52.372;9.918;2024-03-02T00:39:12;99635.00;;;15.40
11792;BMP180;5953;52.372;9.918;2024-03-02T00:41:43;99650.00;;;15.40
11792;BMP180;5953;52.372;9.918;2024-03-02T00:44:12;99645.00;;;15.40
11792;BMP180;5953;52.372;9.918;2024-03-02T00:46:41;99630.00;;;15.40
11792;BMP180;5953;52.372;9.918;2024-03-02T00:49:13;99641.00;;;15.30
11792;BMP180;5953;52.372;9.918;2024-03-02T00:51:47;99644.00;;;15.30
11792;BMP180;5953;52.372;9.918;2024-03-02T00:54:19;99645.00;;;15.10
11792;BMP180;5953;52.372;9.918;2024-03-02T00:56:47;99640.00;;;15.20
11792;BMP180;5953;52.372;9.918;2024-03-02T00:59:16;99639.00;;;15.10
11792;BMP180;5953;52.372;9.918;2024-03-02T01:01:44;99638.00;;;15.10
11792;BMP180;5953;52.372;9.918;2024-03-02T01:04:12;99651.00;;;14.70
11792;BMP180;5953;52.372;9.918;2024-03-02T01:06:42;99652.00;;;14.70
11792;BMP180;5953;52.372;9.918;2024-03-02T01:09:10;99650.00;;;14.90
11792;BMP180;5953;52.372;9.918;2024-03-02T01:11:39;99647.00;;;15.00
11792;BMP180;5953;52.372;9.918;2024-03-02T01:14:07;99637.00;;;15.10
11792;BMP180;5953;52.372;9.918;2024-03-02T01:16:36;99650.00;;;15.00
11792;BMP180;5953;52.372;9.918;2024-03-02T01:19:04;99643.00;;;14.90
11792;BMP180;5953;52.372;9.918;2024-03-02T01:21:32;99650.00;;;15.10
11792;BMP180;5953;52.372;9.918;2024-03-02T01:24:00;99656.00;;;15.20
11792;BMP180;5953;52.372;9.918;2024-03-02T01:26:28;99661.00;;;15.10
11792;BMP180;5953;52.372;9.918;2024-03-02T01:28:57;99668.00;;;15.10
11792;BMP180;5953;52.372;9.918;2024-03-02T01:31:25;99642.00;;;15.00
11792;BMP180;5953;52.372;9.918;2024-03-02T01:33:54;99655.00;;;15.20
11792;BMP180;5953;52.372;9.918;2024-03-02T01:36:22;99635.00;;;15.20
11792;BMP180;5953;52.372;9.918;2024-03-02T01:38:50;99658.00;;;15.10
11792;BMP180;5953;52.372;9.918;2024-03-02T01:41:18;99652.00;;;15.20
11792;BMP180;5953;52.372;9.918;2024-03-02T01:43:46;99649.00;;;15.20
11792;BMP180;5953;52.372;9.918;2024-03-02T01:46:13;99644.00;;;15.20
11792;BMP180;5953;52.372;9.918;2024-03-02T01:48:41;99636.00;;;15.20
11792;BMP180;5953;52.372;9.918;2024-03-02T01:51:10;99643.00;;;15.30
11792;BMP180;5953;52.372;9.918;2024-03-02T01:53:38;99636.00;;;15.30
11792;BMP180;5953;52.372;9.918;2024-03-02T01:56:06;99623.00;;;15.30
11792;BMP180;5953;52.372;9.918;2024-03-02T01:58:34;99635.00;;;15.20
11792;BMP180;5953;52.372;9.918;2024-03-02T02:01:03;99641.00;;;15.20
11792;BMP180;5953;52.372;9.918;2024-03-02T02:03:31;99635.00;;;15.30
11792;BMP180;5953;52.372;9.918;2024-03-02T02:05:58;99629.00;;;15.30
11792;BMP180;5953;52.372;9.918;2024-03-02T02:08:28;99627.00;;;15.40
11792;BMP180;5953;52.372;9.918;2024-03-02T02:10:55;99631.00;;;15.40
11792;BMP180;5953;52.372;9.918;2024-03-02T02:13:23;99622.00;;;15.40
11792;BMP180;5953;52.372;9.918;2024-03-02T02:15:51;99610.00;;;15.10
11792;BMP180;5953;52.372;9.918;2024-03-02T02:18:19;99598.00;;;15.10
11792;BMP180;5953;52.372;9.918;2024-03-02T02:20:47;99610.00;;;15.10
11792;BMP180;5953;52.372;9.918;2024-03-02T02:23:17;99602.00;;;14.80
11792;BMP180;5953;52.372;9.918;2024-03-02T02:25:44;99594.00;;;14.90
11792;BMP180;5953;52.372;9.918;2024-03-02T02:28:12;99601.00;;;14.80
11792;BMP180;5953;52.372;9.918;2024-03-02T02:30:40;99596.00;;;14.90
11792;BMP180;5953;52.372;9.918;2024-03-02T02:33:09;99606.00;;;14.70
11792;BMP180;5953;52.372;9.918;2024-03-02T02:35:37;99601.00;;;14.80
11792;BMP180;5953;52.372;9.918;2024-03-02T02:38:05;99598.00;;;14.80
11792;BMP180;5953;52.372;9.918;2024-03-02T02:40:34;99607.00;;;14.80
11792;BMP180;5953;52.372;9.918;2024-03-02T02:43:02;99602.00;;;14.90
11792;BMP180;5953;52.372;9.918;2024-03-02T02:45:30;99602.00;;;14.90
11792;BMP180;5953;52.372;9.918;2024-03-02T02:47:58;99609.00;;;14.90
11792;BMP180;5953;52.372;9.918;2024-03-02T02:50:27;99589.00;;;14.90
11792;BMP180;5953;52.372;9.918;2024-03-02T02:52:55;99604.00;;;14.90
11792;BMP180;5953;52.372;9.918;2024-03-02T02:55:23;99603.00;;;14.90
11792;BMP180;5953;52.372;9.918;2024-03-02T02:57:52;99603.00;;;14.80
11792;BMP180;5953;52.372;9.918;2024-03-02T03:00:20;99609.00;;;14.80
11792;BMP180;5953;52.372;9.918;2024-03-02T03:02:49;99593.00;;;14.80
11792;BMP180;5953;52.372;9.918;2024-03-02T03:05:18;99596.00;;;14.80
11792;BMP180;5953;52.372;9.918;2024-03-02T03:07:46;99586.00;;;14.80
11792;BMP180;5953;52.372;9.918;2024-03-02T03:10:15;99589.00;;;14.60
11792;BMP180;5953;52.372;9.918;2024-03-02T03:12:43;99602.00;;;14.70
11792;BMP180;5953;52.372;9.918;2024-03-02T03:15:12;99586.00;;;14.30
11792;BMP180;5953;52.372;9.918;2024-03-02T03:17:41;99585.00;;;14.30
11792;BMP180;5953;52.372;9.918;2024-03-02T03:20:09;99581.00;;;14.20
11792;BMP180;5953;52.372;9.918;2024-03-02T03:22:37;99580.00;;;14.30
11792;BMP180;5953;52.372;9.918;2024-03-02T03:25:05;99572.00;;;14.20
11792;BMP180;5953;52.372;9.918;2024-03-02T03:27:35;99580.00;;;14.30
11792;BMP180;5953;52.372;9.918;2024-03-02T03:30:03;99583.00;;;14.10
11792;BMP180;5953;52.372;9.918;2024-03-02T03:32:34;99573.00;;;14.00
11792;BMP180;5953;52.372;9.918;2024-03-02T03:35:02;99589.00;;;14.20
11792;BMP180;5953;52.372;9.918;2024-03-02T03:37:30;99582.00;;;14.20
11792;BMP180;5953;52.372;9.918;2024-03-02T03:40:04;99591.00;;;14.30
11792;BMP180;5953;52.372;9.918;2024-03-02T03:42:37;99597.00;;;14.30
11792;BMP180;5953;52.372;9.918;2024-03-02T03:45:06;99584.00;;;14.10
11792;BMP180;5953;52.372;9.918;2024-03-02T03:47:36;99584.00;;;13.90
11792;BMP180;5953;52.372;9.918;2024-03-02T03:50:05;99578.00;;;14.10
11792;BMP180;5953;52.372;9.918;2024-03-02T03:52:34;99583.00;;;13.80
11792;BMP180;5953;52.372;9.918;2024-03-02T03:55:02;99584.00;;;13.90
11792;BMP180;5953;52.372;9.918;2024-03-02T03:57:30;99576.00;;;13.80
11792;BMP180;5953;52.372;9.918;2024-03-02T03:59:58;99586.00;;;13.90
11792;BMP180;5953;52.372;9.918;2024-03-02T04:02:27;99584.00;;;14.00
11792;BMP180;5953;52.372;9.918;2024-03-02T04:04:56;99596.00;;;14.00
11792;BMP180;5953;52.372;9.918;2024-03-02T04:07:23;99564.00;;;14.00
11792;BMP180;5953;52.372;9.918;2024-03-02T04:09:51;99577.00;;;14.00
11792;BMP180;5953;52.372;9.918;2024-03-02T04:12:19;99581.00;;;13.90
11792;BMP180;5953;52.372;9.918;2024-03-02T04:14:47;99589.00;;;13.80
11792;BMP180;5953;52.372;9.918;2024-03-02T04:17:15;99576.00;;;13.80
11792;BMP180;5953;52.372;9.918;2024-03-02T04:19:42;99577.00;;;13.80
11792;BMP180;5953;52.372;9.918;2024-03-02T04:22:12;99586.00;;;13.90
11792;BMP180;5953;52.372;9.918;2024-03-02T04:24:50;99582.00;;;13.90
11792;BMP180;5953;52.372;9.918;2024-03-02T04:27:18;99585.00;;;13.90
11792;BMP180;5953;52.372;9.918;2024-03-02T04:29:46;99596.00;;;14.00
11792;BMP180;5953;52.372;9.918;2024-03-02T04:32:14;99588.00;;;13.90
11792;BMP180;5953;52.372;9.918;2024-03-02T04:34:41;99587.00;;;13.90
11792;BMP180;5953;52.372;9.918;2024-03-02T04:37:12;99584.00;;;13.80
11792;BMP180;5953;52.372;9.918;2024-03-02T04:39:41;99592.00;;;13.80
11792;BMP180;5953;52.372;9.918;2024-03-02T04:42:09;99598.00;;;13.80
11792;BMP180;5953;52.372;9.918;2024-03-02T04:44:36;99593.00;;;13.70
11792;BMP180;5953;52.372;9.918;2024-03-02T04:47:05;99587.00;;;13.90
11792;BMP180;5953;52.372;9.918;2024-03-02T04:49:32;99594.00;;;13.90
11792;BMP180;5953;52.372;9.918;2024-03-02T04:52:00;99584.00;;;13.80
11792;BMP180;5953;52.372;9.918;2024-03-02T04:54:30;99588.00;;;13.80
11792;BMP180;5953;52.372;9.918;2024-03-02T04:56:57;99592.00;;;13.80
11792;BMP180;5953;52.372;9.918;2024-03-02T04:59:25;99603.00;;;14.00
11792;BMP180;5953;52.372;9.918;2024-03-02T05:01:53;99598.00;;;14.00
11792;BMP180;5953;52.372;9.918;2024-03-02T05:04:21;99609.00;;;14.10
11792;BMP180;5953;52.372;9.918;2024-03-02T05:06:49;99598.00;;;14.00
11792;BMP180;5953;52.372;9.918;2024-03-02T05:09:20;99612.00;;;14.10
11792;BMP180;5953;52.372;9.918;2024-03-02T05:11:49;99600.00;;;14.10
11792;BMP180;5953;52.372;9.918;2024-03-02T05:14:40;99596.00;;;14.10
11792;BMP180;5953;52.372;9.918;2024-03-02T05:17:08;99595.00;;;13.90
11792;BMP180;5953;52.372;9.918;2024-03-02T05:19:36;99599.00;;;13.80
11792;BMP180;5953;52.372;9.918;2024-03-02T05:22:04;99593.00;;;13.80
11792;BMP180;5953;52.372;9.918;2024-03-02T05:24:32;99600.00;;;13.70
11792;BMP180;5953;52.372;9.918;2024-03-02T05:27:02;99605.00;;;13.70
11792;BMP180;5953;52.372;9.918;2024-03-02T05:29:30;99599.00;;;13.70
11792;BMP180;5953;52.372;9.918;2024-03-02T05:31:58;99592.00;;;13.60
11792;BMP180;5953;52.372;9.918;2024-03-02T05:34:26;99593.00;;;13.50
11792;BMP180;5953;52.372;9.918;2024-03-02T05:36:54;99588.00;;;13.40
11792;BMP180;5953;52.372;9.918;2024-03-02T05:39:24;99595.00;;;13.30
11792;BMP180;5953;52.372;9.918;2024-03-02T05:41:52;99599.00;;;13.30
11792;BMP180;5953;52.372;9.918;2024-03-02T05:44:24;99593.00;;;13.00
11792;BMP180;5953;52.372;9.918;2024-03-02T05:46:51;99586.00;;;12.70
11792;BMP180;5953;52.372;9.918;2024-03-02T05:49:19;99594.00;;;12.90
11792;BMP180;5953;52.372;9.918;2024-03-02T05:51:47;99601.00;;;12.80
11792;BMP180;5953;52.372;9.918;2024-03-02T05:54:15;99589.00;;;12.60
11792;BMP180;5953;52.372;9.918;2024-03-02T05:56:43;99590.00;;;12.20
11792;BMP180;5953;52.372;9.918;2024-03-02T05:59:11;99583.00;;;12.30
11792;BMP180;5953;52.372;9.918;2024-03-02T06:01:41;99593.00;;;12.30
11792;BMP180;5953;52.372;9.918;2024-03-02T06:04:10;99600.00;;;12.40
11792;BMP180;5953;52.372;9.918;2024-03-02T06:06:38;99610.00;;;12.50
11792;BMP180;5953;52.372;9.918;2024-03-02T06:09:07;99615.00;;;12.50
11792;BMP180;5953;52.372;9.918;2024-03-02T06:11:35;99607.00;;;12.60
11792;BMP180;5953;52.372;9.918;2024-03-02T06:14:03;99606.00;;;12.70
11792;BMP180;5953;52.372;9.918;2024-03-02T06:16:33;99615.00;;;12.70
11792;BMP180;5953;52.372;9.918;2024-03-02T06:19:02;99613.00;;;12.70
11792;BMP180;5953;52.372;9.918;2024-03-02T06:21:30;99613.00;;;12.50
11792;BMP180;5953;52.372;9.918;2024-03-02T06:23:58;99609.00;;;12.40
11792;BMP180;5953;52.372;9.918;2024-03-02T06:26:25;99617.00;;;12.30
11792;BMP180;5953;52.372;9.918;2024-03-02T06:28:53;99610.00;;;12.10
11792;BMP180;5953;52.372;9.918;2024-03-02T06:31:21;99617.00;;;11.80
11792;BMP180;5953;52.372;9.918;2024-03-02T06:33:49;99609.00;;;11.90
11792;BMP180;5953;52.372;9.918;2024-03-02T06:36:18;99612.00;;;12.00
11792;BMP180;5953;52.372;9.918;2024-03-02T06:38:46;99623.00;;;12.00
11792;BMP180;5953;52.372;9.918;2024-03-02T06:41:13;99636.00;;;12.10
11792;BMP180;5953;52.372;9.918;2024-03-02T06:43:41;99640.00;;;12.20
11792;BMP180;5953;52.372;9.918;2024-03-02T06:46:09;99637.00;;;12.30
11792;BMP180;5953;52.372;9.918;2024-03-02T06:48:41;99635.00;;;12.40
11792;BMP180;5953;52.372;9.918;2024-03-02T06:51:08;99641.00;;;12.40
11792;BMP180;5953;52.372;9.918;2024-03-02T06:53:38;99638.00;;;12.20
11792;BMP180;5953;52.372;9.918;2024-03-02T06:56:07;99647.00;;;12.20
11792;BMP180;5953;52.372;9.918;2024-03-02T06:58:35;99645.00;;;12.20
11792;BMP180;5953;52.372;9.918;2024-03-02T07:01:03;99649.00;;;12.40
11792;BMP180;5953;52.372;9.918;2024-03-02T07:03:34;99653.00;;;12.40
11792;BMP180;5953;52.372;9.918;2024-03-02T07:06:02;99631.00;;;12.50
11792;BMP180;5953;52.372;9.918;2024-03-02T07:08:31;99647.00;;;12.20
11792;BMP180;5953;52.372;9.918;2024-03-02T07:11:00;99644.00;;;12.20
11792;BMP180;5953;52.372;9.918;2024-03-02T07:13:28;99644.00;;;12.30
11792;BMP180;5953;52.372;9.918;2024-03-02T07:15:56;99640.00;;;12.40
11792;BMP180;5953;52.372;9.918;2024-03-02T07:18:49;99653.00;;;12.50
11792;BMP180;5953;52.372;9.918;2024-03-02T07:21:18;99647.00;;;12.50
11792;BMP180;5953;52.372;9.918;2024-03-02T07:23:46;99653.00;;;12.60
11792;BMP180;5953;52.372;9.918;2024-03-02T07:26:15;99648.00;;;12.70
11792;BMP180;5953;52.372;9.918;2024-03-02T07:28:48;99657.00;;;12.90
11792;BMP180;5953;52.372;9.918;2024-03-02T07:31:16;99655.00;;;13.10
11792;BMP180;5953;52.372;9.918;2024-03-02T07:33:44;99653.00;;;13.10
11792;BMP180;5953;52.372;9.918;2024-03-02T07:36:13;99654.00;;;13.40
11792;BMP180;5953;52.372;9.918;2024-03-02T07:38:43;99664.00;;;13.50
11792;BMP180;5953;52.372;9.918;2024-03-02T07:41:11;99663.00;;;13.50
11792;BMP180;5953;52.372;9.918;2024-03-02T07:43:40;99656.00;;;13.10
11792;BMP180;5953;52.372;9.918;2024-03-02T07:46:08;99663.00;;;13.40
11792;BMP180;5953;52.372;9.918;2024-03-02T07:48:36;99669.00;;;13.50
11792;BMP180;5953;52.372;9.918;2024-03-02T07:51:04;99672.00;;;13.60
11792;BMP180;5953;52.372;9.918;2024-03-02T07:53:32;99682.00;;;13.70
11792;BMP180;5953;52.372;9.918;2024-03-02T07:56:00;99682.00;;;13.80
11792;BMP180;5953;52.372;9.918;2024-03-02T07:58:29;99683.00;;;13.80
11792;BMP180;5953;52.372;9.918;2024-03-02T08:01:00;99683.00;;;13.90
11792;BMP180;5953;52.372;9.918;2024-03-02T08:03:28;99693.00;;;13.90
11792;BMP180;5953;52.372;9.918;2024-03-02T08:05:58;99690.00;;;14.10
11792;BMP180;5953;52.372;9.918;2024-03-02T08:08:26;99692.00;;;14.20
11792;BMP180;5953;52.372;9.918;2024-03-02T08:10:54;99699.00;;;14.30
11792;BMP180;5953;52.372;9.918;2024-03-02T08:13:25;99692.00;;;14.30
11792;BMP180;5953;52.372;9.918;2024-03-02T08:15:52;99692.00;;;13.90
11792;BMP180;5953;52.372;9.918;2024-03-02T08:18:21;99696.00;;;14.50
11792;BMP180;5953;52.372;9.918;2024-03-02T08:20:48;99702.00;;;14.60
11792;BMP180;5953;52.372;9.918;2024-03-02T08:23:17;99694.00;;;14.90
11792;BMP180;5953;52.372;9.918;2024-03-02T08:25:44;99691.00;;;15.00
11792;BMP180;5953;52.372;9.918;2024-03-02T08:28:13;99693.00;;;15.20
11792;BMP180;5953;52.372;9.918;2024-03-02T08:30:41;99687.00;;;15.30
11792;BMP180;5953;52.372;9.918;2024-03-02T08:33:09;99678.00;;;15.30
11792;BMP180;5953;52.372;9.918;2024-03-02T08:35:38;99687.00;;;15.10
11792;BMP180;5953;52.372;9.918;2024-03-02T08:38:06;99682.00;;;15.10
11792;BMP180;5953;52.372;9.918;2024-03-02T08:40:34;99699.00;;;15.20
11792;BMP180;5953;52.372;9.918;2024-03-02T08:43:02;99691.00;;;15.20
11792;BMP180;5953;52.372;9.918;2024-03-02T08:45:31;99697.00;;;15.60
11792;BMP180;5953;52.372;9.918;2024-03-02T08:47:59;99697.00;;;15.70
11792;BMP180;5953;52.372;9.918;2024-03-02T08:50:26;99710.00;;;15.60
11792;BMP180;5953;52.372;9.918;2024-03-02T08:52:56;99700.00;;;15.90
11792;BMP180;5953;52.372;9.918;2024-03-02T08:55:24;99687.00;;;15.90
11792;BMP180;5953;52.372;9.918;2024-03-02T08:57:52;99702.00;;;16.10
11792;BMP180;5953;52.372;9.918;2024-03-02T09:00:20;99704.00;;;16.00
11792;BMP180;5953;52.372;9.918;2024-03-02T09:02:48;99702.00;;;16.00
11792;BMP180;5953;52.372;9.918;2024-03-02T09:05:16;99688.00;;;16.20
11792;BMP180;5953;52.372;9.918;2024-03-02T09:07:44;99700.00;;;16.10
11792;BMP180;5953;52.372;9.918;2024-03-02T09:10:13;99702.00;;;16.30
11792;BMP180;5953;52.372;9.918;2024-03-02T09:12:41;99711.00;;;16.40
11792;BMP180;5953;52.372;9.918;2024-03-02T09:15:10;99703.00;;;16.50
11792;BMP180;5953;52.372;9.918;2024-03-02T09:17:38;99712.00;;;16.40
11792;BMP180;5953;52.372;9.918;2024-03-02T09:20:07;99713.00;;;16.40
11792;BMP180;5953;52.372;9.918;2024-03-02T09:22:35;99710.00;;;16.60
11792;BMP180;5953;52.372;9.918;2024-03-02T09:25:03;99713.00;;;16.10
11792;BMP180;5953;52.372;9.918;2024-03-02T09:27:38;99720.00;;;16.40
11792;BMP180;5953;52.372;9.918;2024-03-02T09:30:08;99720.00;;;16.40
11792;BMP180;5953;52.372;9.918;2024-03-02T09:32:37;99716.00;;;16.40
11792;BMP180;5953;52.372;9.918;2024-03-02T09:35:05;99718.00;;;16.30
11792;BMP180;5953;52.372;9.918;2024-03-02T09:37:33;99727.00;;;16.30
11792;BMP180;5953;52.372;9.918;2024-03-02T09:40:01;99720.00;;;16.50
11792;BMP180;5953;52.372;9.918;2024-03-02T09:42:29;99714.00;;;16.40
11792;BMP180;5953;52.372;9.918;2024-03-02T09:45:00;99727.00;;;16.40
11792;BMP180;5953;52.372;9.918;2024-03-02T09:47:28;99724.00;;;15.90
11792;BMP180;5953;52.372;9.918;2024-03-02T09:49:56;99725.00;;;16.60
11792;BMP180;5953;52.372;9.918;2024-03-02T09:52:24;99726.00;;;16.40
11792;BMP180;5953;52.372;9.918;2024-03-02T09:54:52;99723.00;;;16.50
11792;BMP180;5953;52.372;9.918;2024-03-02T09:57:20;99723.00;;;16.60
11792;BMP180;5953;52.372;9.918;2024-03-02T09:59:48;99733.00;;;16.80
11792;BMP180;5953;52.372;9.918;2024-03-02T10:02:17;99738.00;;;16.80
11792;BMP180;5953;52.372;9.918;2024-03-02T10:04:45;99734.00;;;16.70
11792;BMP180;5953;52.372;9.918;2024-03-02T10:07:14;99728.00;;;16.70
11792;BMP180;5953;52.372;9.918;2024-03-02T10:09:43;99729.00;;;16.60
11792;BMP180;5953;52.372;9.918;2024-03-02T10:12:14;99725.00;;;16.80
11792;BMP180;5953;52.372;9.918;2024-03-02T10:14:42;99742.00;;;16.90
11792;BMP180;5953;52.372;9.918;2024-03-02T10:17:11;99726.00;;;17.00
11792;BMP180;5953;52.372;9.918;2024-03-02T10:19:40;99732.00;;;16.70
11792;BMP180;5953;52.372;9.918;2024-03-02T10:22:09;99734.00;;;17.00
11792;BMP180;5953;52.372;9.918;2024-03-02T10:24:38;99735.00;;;17.00
11792;BMP180;5953;52.372;9.918;2024-03-02T10:27:07;99728.00;;;17.20
11792;BMP180;5953;52.372;9.918;2024-03-02T10:29:37;99718.00;;;17.10
11792;BMP180;5953;52.372;9.918;2024-03-02T10:32:08;99729.00;;;17.20
11792;BMP180;5953;52.372;9.918;2024-03-02T10:34:36;99737.00;;;17.10
11792;BMP180;5953;52.372;9.918;2024-03-02T10:37:06;99731.00;;;16.80
11792;BMP180;5953;52.372;9.918;2024-03-02T10:39:35;99735.00;;;16.90
11792;BMP180;5953;52.372;9.918;2024-03-02T10:42:03;99739.00;;;17.20
11792;BMP180;5953;52.372;9.918;2024-03-02T10:44:33;99744.00;;;17.10
11792;BMP180;5953;52.372;9.918;2024-03-02T10:47:02;99753.00;;;17.20
11792;BMP180;5953;52.372;9.918;2024-03-02T10:49:32;99741.00;;;17.30
11792;BMP180;5953;52.372;9.918;2024-03-02T10:52:00;99742.00;;;17.30
11792;BMP180;5953;52.372;9.918;2024-03-02T10:54:30;99744.00;;;17.50
11792;BMP180;5953;52.372;9.918;2024-03-02T10:57:04;99735.00;;;17.30
11792;BMP180;5953;52.372;9.918;2024-03-02T10:59:37;99739.00;;;17.80
11792;BMP180;5953;52.372;9.918;2024-03-02T11:02:06;99729.00;;;17.80
11792;BMP180;5953;52.372;9.918;2024-03-02T11:04:35;99738.00;;;17.70
11792;BMP180;5953;52.372;9.918;2024-03-02T11:07:05;99727.00;;;17.70
11792;BMP180;5953;52.372;9.918;2024-03-02T11:09:39;99723.00;;;18.00
11792;BMP180;5953;52.372;9.918;2024-03-02T11:12:12;99735.00;;;18.00
11792;BMP180;5953;52.372;9.918;2024-03-02T11:14:41;99734.00;;;18.00
11792;BMP180;5953;52.372;9.918;2024-03-02T11:17:11;99711.00;;;18.20
11792;BMP180;5953;52.372;9.918;2024-03-02T11:19:43;99729.00;;;18.10
11792;BMP180;5953;52.372;9.918;2024-03-02T11:22:12;99734.00;;;18.10
11792;BMP180;5953;52.372;9.918;2024-03-02T11:24:47;99737.00;;;18.10
11792;BMP180;5953;52.372;9.918;2024-03-02T11:30:50;99756.00;;;18.10
11792;BMP180;5953;52.372;9.918;2024-03-02T11:33:25;99749.00;;;18.20
11792;BMP180;5953;52.372;9.918;2024-03-02T11:35:57;99751.00;;;18.30
11792;BMP180;5953;52.372;9.918;2024-03-02T11:38:31;99742.00;;;18.50
11792;BMP180;5953;52.372;9.918;2024-03-02T11:41:02;99735.00;;;18.20
11792;BMP180;5953;52.372;9.918;2024-03-02T11:43:30;99738.00;;;18.40
11792;BMP180;5953;52.372;9.918;2024-03-02T11:46:00;99719.00;;;18.40
11792;BMP180;5953;52.372;9.918;2024-03-02T11:48:32;99735.00;;;18.50
11792;BMP180;5953;52.372;9.918;2024-03-02T11:51:00;99732.00;;;18.40
11792;BMP180;5953;52.372;9.918;2024-03-02T11:53:30;99732.00;;;18.20
11792;BMP180;5953;52.372;9.918;2024-03-02T11:56:03;99731.00;;;18.10
11792;BMP180;5953;52.372;9.918;2024-03-02T11:58:36;99725.00;;;18.10
11792;BMP180;5953;52.372;9.918;2024-03-02T12:01:04;99729.00;;;18.30
11792;BMP180;5953;52.372;9.918;2024-03-02T12:03:32;99726.00;;;18.50
11792;BMP180;5953;52.372;9.918;2024-03-02T12:06:02;99695.00;;;18.70
11792;BMP180;5953;52.372;9.918;2024-03-02T12:08:30;99725.00;;;18.50
11792;BMP180;5953;52.372;9.918;2024-03-02T12:10:59;99725.00;;;18.40
11792;BMP180;5953;52.372;9.918;2024-03-02T12:13:31;99726.00;;;18.40
11792;BMP180;5953;52.372;9.918;2024-03-02T12:16:00;99725.00;;;18.50
11792;BMP180;5953;52.372;9.918;2024-03-02T12:18:27;99717.00;;;18.60
11792;BMP180;5953;52.372;9.918;2024-03-02T12:20:55;99706.00;;;18.70
11792;BMP180;5953;52.372;9.918;2024-03-02T12:23:25;99708.00;;;18.70
11792;BMP180;5953;52.372;9.918;2024-03-02T12:25:54;99698.00;;;18.60
11792;BMP180;5953;52.372;9.918;2024-03-02T12:28:23;99705.00;;;18.40
11792;BMP180;5953;52.372;9.918;2024-03-02T12:30:52;99692.00;;;18.40
11792;BMP180;5953;52.372;9.918;2024-03-02T12:33:20;99698.00;;;18.60
11792;BMP180;5953;52.372;9.918;2024-03-02T12:35:49;99696.00;;;18.50
11792;BMP180;5953;52.372;9.918;2024-03-02T12:38:17;99706.00;;;18.40
11792;BMP180;5953;52.372;9.918;2024-03-02T12:40:47;99694.00;;;18.20
11792;BMP180;5953;52.372;9.918;2024-03-02T12:43:15;99689.00;;;18.70
11792;BMP180;5953;52.372;9.918;2024-03-02T12:45:43;99682.00;;;18.90
11792;BMP180;5953;52.372;9.918;2024-03-02T12:48:13;99687.00;;;18.90
11792;BMP180;5953;52.372;9.918;2024-03-02T12:50:41;99679.00;;;18.90
11792;BMP180;5953;52.372;9.918;2024-03-02T12:53:14;99698.00;;;19.10
11792;BMP180;5953;52.372;9.918;2024-03-02T12:55:43;99696.00;;;19.10
11792;BMP180;5953;52.372;9.918;2024-03-02T12:58:17;99695.00;;;18.90
11792;BMP180;5953;52.372;9.918;2024-03-02T13:00:45;99685.00;;;19.30
11792;BMP180;5953;52.372;9.918;2024-03-02T13:03:14;99682.00;;;18.80
11792;BMP180;5953;52.372;9.918;2024-03-02T13:05:48;99681.00;;;19.10
11792;BMP180;5953;52.372;9.918;2024-03-02T13:08:16;99685.00;;;19.30
11792;BMP180;5953;52.372;9.918;2024-03-02T13:10:44;99683.00;;;19.20
11792;BMP180;5953;52.372;9.918;2024-03-02T13:13:13;99684.00;;;19.30
11792;BMP180;5953;52.372;9.918;2024-03-02T13:15:44;99680.00;;;19.50
11792;BMP180;5953;52.372;9.918;2024-03-02T13:18:13;99668.00;;;19.50
11792;BMP180;5953;52.372;9.918;2024-03-02T13:20:41;99684.00;;;19.30
11792;BMP180;5953;52.372;9.918;2024-03-02T13:23:09;99674.00;;;19.30
11792;BMP180;5953;52.372;9.918;2024-03-02T13:25:37;99679.00;;;19.70
11792;BMP180;5953;52.372;9.918;2024-03-02T13:28:05;99696.00;;;19.40
11792;BMP180;5953;52.372;9.918;2024-03-02T13:30:33;99681.00;;;19.70
11792;BMP180;5953;52.372;9.918;2024-03-02T13:33:01;99680.00;;;19.70
11792;BMP180;5953;52.372;9.918;2024-03-02T13:35:31;99677.00;;;19.70
11792;BMP180;5953;52.372;9.918;2024-03-02T13:37:58;99682.00;;;20.00
11792;BMP180;5953;52.372;9.918;2024-03-02T13:40:26;99683.00;;;19.70
11792;BMP180;5953;52.372;9.918;2024-03-02T13:42:55;99684.00;;;20.00
11792;BMP180;5953;52.372;9.918;2024-03-02T13:45:23;99680.00;;;19.50
11792;BMP180;5953;52.372;9.918;2024-03-02T13:47:51;99683.00;;;20.00
11792;BMP180;5953;52.372;9.918;2024-03-02T13:50:20;99667.00;;;20.30
11792;BMP180;5953;52.372;9.918;2024-03-02T13:52:49;99680.00;;;19.80
11792;BMP180;5953;52.372;9.918;2024-03-02T13:55:16;99673.00;;;19.90
11792;BMP180;5953;52.372;9.918;2024-03-02T13:57:46;99664.00;;;20.00
11792;BMP180;5953;52.372;9.918;2024-03-02T14:00:14;99669.00;;;20.00
11792;BMP180;5953;52.372;9.918;2024-03-02T14:02:42;99666.00;;;20.40
11792;BMP180;5953;52.372;9.918;2024-03-02T14:05:11;99655.00;;;19.60
11792;BMP180;5953;52.372;9.918;2024-03-02T14:07:40;99664.00;;;20.10
11792;BMP180;5953;52.372;9.918;2024-03-02T14:10:10;99668.00;;;20.30
11792;BMP180;5953;52.372;9.918;2024-03-02T14:12:38;99652.00;;;20.30
11792;BMP180;5953;52.372;9.918;2024-03-02T14:15:07;99634.00;;;19.90
11792;BMP180;5953;52.372;9.918;2024-03-02T14:17:35;99655.00;;;20.20
11792;BMP180;5953;52.372;9.918;2024-03-02T14:20:03;99655.00;;;19.80
11792;BMP180;5953;52.372;9.918;2024-03-02T14:22:32;99648.00;;;19.90
11792;BMP180;5953;52.372;9.918;2024-03-02T14:25:00;99656.00;;;19.70
11792;BMP180;5953;52.372;9.918;2024-03-02T14:27:29;99634.00;;;19.80
11792;BMP180;5953;52.372;9.918;2024-03-02T14:30:17;99662.00;;;19.50
11792;BMP180;5953;52.372;9.918;2024-03-02T14:32:45;99650.00;;;19.70
11792;BMP180;5953;52.372;9.918;2024-03-02T14:35:13;99614.00;;;19.40